Thunder radar more information blitzortung!


Radar de pluja more information rain snow radar


Visita la nostra xarxa de llocs de meteo:

Template documentation
and downloads

And another site



No particular awareness of the weather is required.    There are no Weather-warnings

Pagina Historial Weather Underground text

Diari Resum Octubre 31, 2017 Unitats:  Imperial    Mètric   Tant
« Previous Dia
SegĂźent Dia »
Diari Setmana Mensual Anual Personalitzada
  Maxima: Minima: Media:
Temperatura: 67.5 °F 51.1 °F 58.5 °F
Punt de rosada: 50.4 °F 42.3 °F 46.2 °F
Humitat: 77 % 53 % 64 %
Wind Speed: 8.1 mph 0 mph 2.2 mph
RĂ fegues de vent: 8.1 mph - -
Vent:- - South
Pression baro: 30.3 in 30.1 in -
Precipitacions: 0 in    
Historical Graphs
 
 
Dades de taula per Octubre 31, 2017
Temps Temperatura Punt de rosada Pression baro Vent Wind Speed RĂ fegues de vent Humitat Rainfall Rate (Hourly)
00:02 56.7 °F 49.3 °F 30.1 in Calm     76 % 0 in
00:05 55.6 °F 46.8 °F 30.2 in NNE 2 mph 3 mph 72 % 0 in
00:07 56.7 °F 49.3 °F 30.1 in ESE 3.1 mph 3.1 mph 76 % 0 in
00:15 55.2 °F 46.8 °F 30.2 in Calm   1 mph 73 % 0 in
00:25 55 °F 46.6 °F 30.2 in North 1 mph 2 mph 73 % 0 in
00:35 54.9 °F 46 °F 30.2 in North 1 mph 1 mph 72 % 0 in
00:45 54.7 °F 45.5 °F 30.2 in Calm   1 mph 71 % 0 in
00:55 54.7 °F 45.1 °F 30.2 in North 1 mph 2 mph 70 % 0 in
01:05 54.3 °F 44.4 °F 30.2 in Calm   1 mph 69 % 0 in
01:15 54.3 °F 44.4 °F 30.2 in WNW 1 mph 2 mph 69 % 0 in
01:25 54.3 °F 44.1 °F 30.2 in NW 1 mph 2 mph 68 % 0 in
01:45 54 °F 43.2 °F 30.2 in WNW 1 mph 3 mph 67 % 0 in
01:55 53.8 °F 43.2 °F 30.2 in Calm   1 mph 67 % 0 in
02:05 53.4 °F 42.6 °F 30.2 in Calm   3 mph 67 % 0 in
02:15 53.4 °F 42.3 °F 30.2 in Calm   2 mph 66 % 0 in
02:25 53.6 °F 42.4 °F 30.2 in West 1 mph 1 mph 66 % 0 in
02:35 53.6 °F 42.4 °F 30.2 in Calm   1 mph 66 % 0 in
02:45 54 °F 43 °F 30.2 in Calm   1 mph 66 % 0 in
02:55 54 °F 43 °F 30.2 in West 1 mph 1 mph 66 % 0 in
03:05 54.3 °F 43.2 °F 30.2 in Calm   2 mph 66 % 0 in
03:15 54.3 °F 43.2 °F 30.2 in West 1 mph 2 mph 66 % 0 in
09:24 54.3 °F 43.2 °F 30.2 in NW 1.2 mph 1.2 mph 66 % 0 in
09:25 54.3 °F 43.2 °F 30.2 in NW 1.2 mph 1.2 mph 66 % 0 in
09:30 54.5 °F 43.3 °F 30.2 in WNW 1.2 mph   66 % 0 in
09:35 54.5 °F 43.3 °F 30.2 in SW 2.3 mph 2.3 mph 66 % 0 in
09:40 54.9 °F 43.7 °F 30.2 in WSW 2.4 mph 2.4 mph 66 % 0 in
09:45 55 °F 43.5 °F 30.2 in SW 1.4 mph   65 % 0 in
09:50 55.2 °F 43.7 °F 30.2 in SW 3.1 mph 3.1 mph 65 % 0 in
09:55 55.4 °F 43.9 °F 30.2 in SW 2.3 mph 2.3 mph 65 % 0 in
10:00 55.6 °F 43.5 °F 30.2 in SSW 1.2 mph 1.2 mph 64 % 0 in
10:05 55.9 °F 43.9 °F 30.2 in SW 1.4 mph   64 % 0 in
10:10 56.7 °F 44.6 °F 30.2 in SE 1.6 mph 1.6 mph 64 % 0 in
10:15 57 °F 45 °F 30.2 in South 2.9 mph 2.9 mph 64 % 0 in
10:20 57 °F 44.4 °F 30.2 in SW 2.3 mph 2.3 mph 63 % 0 in
10:25 57.2 °F 45.1 °F 30.2 in WSW 3.1 mph 3.1 mph 64 % 0 in
10:30 57.6 °F 45.1 °F 30.2 in SW 2 mph   63 % 0 in
10:35 57.7 °F 45.1 °F 30.2 in SW 2.6 mph 2.6 mph 63 % 0 in
10:40 58.3 °F 45.7 °F 30.2 in NNW 1.6 mph 1.6 mph 63 % 0 in
10:45 58.3 °F 45.3 °F 30.2 in NNE 3.5 mph 3.5 mph 62 % 0 in
10:50 58.5 °F 45.5 °F 30.2 in NNE 1.2 mph   62 % 0 in
10:55 58.1 °F 45.1 °F 30.2 in WNW 2.3 mph 2.4 mph 62 % 0 in
11:00 58.1 °F 45.1 °F 30.2 in NE 2.3 mph 2.3 mph 62 % 0 in
11:05 57.9 °F 45 °F 30.2 in ENE 3.5 mph 3.5 mph 62 % 0 in
11:10 58.1 °F 45.1 °F 30.2 in NNW 3.5 mph 3.5 mph 62 % 0 in
11:15 57.7 °F 44.8 °F 30.2 in NNE 3.5 mph 3.5 mph 62 % 0 in
11:20 57.7 °F 44.4 °F 30.2 in NNE 5.9 mph 5.9 mph 61 % 0 in
11:25 57.6 °F 44.6 °F 30.2 in NNE 4 mph 4 mph 62 % 0 in
11:30 57.9 °F 45 °F 30.2 in NE 2.3 mph 2.3 mph 62 % 0 in
11:35 57.9 °F 45 °F 30.2 in ENE 4.6 mph 4.6 mph 62 % 0 in
11:40 58.1 °F 45.1 °F 30.2 in NE 2.4 mph 2.4 mph 62 % 0 in
11:45 59.2 °F 46.2 °F 30.2 in NNE 3.5 mph 3.5 mph 62 % 0 in
11:50 59.4 °F 45.9 °F 30.2 in NNE 3.5 mph 3.5 mph 61 % 0 in
11:55 59.5 °F 46 °F 30.2 in ENE 1.2 mph 1.2 mph 61 % 0 in
12:00 59.4 °F 45.9 °F 30.2 in ENE 2.3 mph 2.4 mph 61 % 0 in
12:05 59.2 °F 45.3 °F 30.2 in ESE 2.3 mph 2.3 mph 60 % 0 in
12:10 59.5 °F 46 °F 30.2 in ENE 2.3 mph 2.3 mph 61 % 0 in
12:15 59.5 °F 45.7 °F 30.2 in NE 3.5 mph 3.5 mph 60 % 0 in
12:20 60.6 °F 47.1 °F 30.2 in NNE 2.3 mph 2.3 mph 61 % 0 in
12:25 60.8 °F 46.8 °F 30.2 in WNW 2.3 mph 2.3 mph 60 % 0 in
12:30 61.5 °F 47.5 °F 30.2 in Calm     60 % 0 in
12:35 62.4 °F 47.8 °F 30.2 in SSE 4.7 mph 4.7 mph 59 % 0 in
12:40 61.7 °F 47.1 °F 30.2 in SW 1.2 mph 1.2 mph 59 % 0 in
12:45 61.9 °F 47.8 °F 30.2 in WNW 2.3 mph 2.3 mph 60 % 0 in
12:50 62.1 °F 47.7 °F 30.2 in East 2.6 mph 2.6 mph 59 % 0 in
12:55 62.1 °F 47.7 °F 30.2 in NNW 2.3 mph 2.3 mph 59 % 0 in
13:00 61.9 °F 46.9 °F 30.2 in East 2.3 mph 2.3 mph 58 % 0 in
13:10 62.4 °F 47.8 °F 30.2 in SSE 2.3 mph 2.3 mph 59 % 0 in
13:15 63 °F 47.8 °F 30.2 in SSW 3.5 mph 3.5 mph 58 % 0 in
13:20 63.5 °F 48.6 °F 30.2 in SW 3.5 mph 3.5 mph 58 % 0 in
13:25 64.4 °F 49.3 °F 30.2 in SW 3.5 mph 3.5 mph 58 % 0 in
13:30 64.8 °F 49.3 °F 30.2 in SSW 4.6 mph 4.6 mph 57 % 0 in
13:35 64.2 °F 48.7 °F 30.2 in SW 2.9 mph 2.9 mph 57 % 0 in
13:40 63.5 °F 48 °F 30.2 in SW 3.5 mph 3.5 mph 57 % 0 in
13:45 63.3 °F 47.3 °F 30.2 in ESE 3.5 mph 3.5 mph 56 % 0 in
13:50 63.9 °F 48.4 °F 30.2 in WNW 5.8 mph 5.8 mph 57 % 0 in
13:55 64 °F 48.6 °F 30.2 in SW 5.8 mph 5.8 mph 57 % 0 in
14:00 64.8 °F 48.7 °F 30.2 in SSE 3.5 mph 3.5 mph 56 % 0 in
14:05 64.4 °F 48.4 °F 30.2 in South 3.5 mph 3.5 mph 56 % 0 in
14:10 64.8 °F 48.7 °F 30.2 in SW 5.8 mph 5.8 mph 56 % 0 in
14:15 64.9 °F 48.9 °F 30.2 in WSW 5.8 mph 5.8 mph 56 % 0 in
14:20 65.1 °F 48.9 °F 30.2 in SSE 4.6 mph 4.6 mph 56 % 0 in
14:25 65.3 °F 48.7 °F 30.2 in SSE 5.8 mph 5.8 mph 55 % 0 in
14:30 65.7 °F 49.5 °F 30.2 in South 2.6 mph 2.6 mph 56 % 0 in
14:35 66.2 °F 49.1 °F 30.2 in SSW 2.3 mph 2.3 mph 54 % 0 in
14:40 66.6 °F 49.5 °F 30.2 in SW 2.3 mph 2.3 mph 54 % 0 in
14:45 66.9 °F 49.6 °F 30.2 in SW 4.7 mph 4.7 mph 54 % 0 in
14:50 67.1 °F 50.4 °F 30.2 in SSW 5.9 mph 5.9 mph 55 % 0 in
14:55 66.9 °F 49.6 °F 30.2 in SW 4.6 mph 4.6 mph 54 % 0 in
15:00 67.3 °F 50.2 °F 30.2 in West 2.3 mph 2.3 mph 54 % 0 in
15:05 67.5 °F 50.2 °F 30.2 in South 3.5 mph 3.5 mph 54 % 0 in
15:10 67.5 °F 50.2 °F 30.2 in SW 6.9 mph 6.9 mph 54 % 0 in
15:15 66.9 °F 49.3 °F 30.2 in South 2.3 mph 2.3 mph 53 % 0 in
15:20 67.1 °F 49.8 °F 30.2 in SW 8.1 mph 8.1 mph 54 % 0 in
15:25 67.1 °F 49.8 °F 30.2 in SW 3.8 mph 3.8 mph 54 % 0 in
15:30 66.9 °F 49.6 °F 30.2 in SW 4.6 mph 4.6 mph 54 % 0 in
15:35 66.9 °F 49.3 °F 30.2 in WSW 5.8 mph 5.8 mph 53 % 0 in
15:40 66.9 °F 49.6 °F 30.2 in SW 4.6 mph 4.6 mph 54 % 0 in
15:45 67.1 °F 49.8 °F 30.2 in West 5.8 mph 5.8 mph 54 % 0 in
15:50 66.6 °F 49.5 °F 30.2 in SW 4.6 mph 4.6 mph 54 % 0 in
15:55 66.6 °F 49.5 °F 30.2 in WSW 3.5 mph 3.5 mph 54 % 0 in
16:00 66.7 °F 50.2 °F 30.2 in SSW 4.6 mph 4.6 mph 55 % 0 in
16:05 66.4 °F 49.6 °F 30.2 in SSW 4.6 mph 4.6 mph 55 % 0 in
16:10 66 °F 49.8 °F 30.2 in WSW 4.6 mph 4.6 mph 56 % 0 in
16:15 65.7 °F 49.5 °F 30.2 in SSW 5.8 mph 5.8 mph 56 % 0 in
16:20 65.1 °F 48.9 °F 30.2 in SW 8.1 mph 8.1 mph 56 % 0 in
16:25 64.8 °F 48.7 °F 30.2 in SSW 4.6 mph 4.6 mph 56 % 0 in
16:30 64.8 °F 48.7 °F 30.2 in WSW 4.6 mph 4.6 mph 56 % 0 in
16:35 64.6 °F 48.6 °F 30.2 in SW 4.6 mph 4.6 mph 56 % 0 in
16:40 64.4 °F 48.4 °F 30.2 in SW 5.8 mph 5.8 mph 56 % 0 in
16:45 64.2 °F 48.7 °F 30.2 in SSW 5.4 mph 5.4 mph 57 % 0 in
16:50 63.7 °F 48.2 °F 30.2 in SW 5.9 mph 5.9 mph 57 % 0 in
16:55 63.5 °F 48 °F 30.2 in SW 5.8 mph 5.8 mph 57 % 0 in
17:00 63.3 °F 47.8 °F 30.2 in WSW 6.9 mph 6.9 mph 57 % 0 in
17:05 63.1 °F 47.7 °F 30.2 in SSW 5.8 mph 5.8 mph 57 % 0 in
17:10 62.6 °F 47.7 °F 30.2 in SW 4.6 mph 4.6 mph 58 % 0 in
17:15 62.2 °F 47.7 °F 30.2 in WSW 5.8 mph 5.8 mph 59 % 0 in
17:20 62.1 °F 47.7 °F 30.2 in WSW 3.5 mph 3.5 mph 59 % 0 in
17:25 61.7 °F 47.7 °F 30.2 in West 3.5 mph 3.5 mph 60 % 0 in
17:30 61.3 °F 47.3 °F 30.2 in SW 3.5 mph 3.5 mph 60 % 0 in
17:35 61 °F 46.9 °F 30.2 in SW 3.5 mph 3.5 mph 60 % 0 in
17:40 60.8 °F 47.3 °F 30.2 in SW 2.3 mph 2.3 mph 61 % 0 in
17:45 60.4 °F 46.9 °F 30.2 in WSW 3.5 mph 3.5 mph 61 % 0 in
17:50 60.1 °F 46.6 °F 30.2 in SW 2.3 mph 2.3 mph 61 % 0 in
17:55 59.9 °F 46.4 °F 30.2 in WSW 3.5 mph 3.5 mph 61 % 0 in
18:00 59.7 °F 46.8 °F 30.2 in WSW 2.3 mph 2.3 mph 62 % 0 in
18:05 59.5 °F 46.6 °F 30.2 in Calm     62 % 0 in
18:10 59.2 °F 46.6 °F 30.2 in Calm     63 % 0 in
18:15 59 °F 46.4 °F 30.2 in SE 1.2 mph   63 % 0 in
18:16 59 °F 46.4 °F 30.2 in SE 1.2 mph   63 % 0 in
18:21 58.8 °F 46.2 °F 30.2 in Calm     63 % 0 in
18:26 58.6 °F 46.6 °F 30.2 in Calm     64 % 0 in
18:31 58.6 °F 46.6 °F 30.2 in Calm     64 % 0 in
18:36 58.5 °F 46.2 °F 30.2 in Calm     64 % 0 in
18:41 58.3 °F 46.2 °F 30.2 in Calm     64 % 0 in
18:46 58.3 °F 46.2 °F 30.2 in Calm     64 % 0 in
18:51 58.3 °F 46.6 °F 30.2 in ESE 1.2 mph 1.2 mph 65 % 0 in
18:56 58.1 °F 46.4 °F 30.2 in Calm     65 % 0 in
19:01 57.7 °F 46 °F 30.2 in Calm     65 % 0 in
19:06 57.7 °F 46.6 °F 30.2 in Calm     66 % 0 in
19:11 57.6 °F 46.2 °F 30.2 in Calm     66 % 0 in
19:16 57.6 °F 46.2 °F 30.2 in NE 1.2 mph 1.2 mph 66 % 0 in
19:21 57.4 °F 46 °F 30.2 in Calm     66 % 0 in
19:26 57.4 °F 46 °F 30.2 in NE 1.2 mph 1.2 mph 66 % 0 in
19:31 57.2 °F 45.9 °F 30.2 in Calm     66 % 0 in
19:36 57.4 °F 46 °F 30.2 in WNW 1.2 mph   66 % 0 in
19:41 57.2 °F 46.2 °F 30.2 in Calm     67 % 0 in
19:46 57.2 °F 46.2 °F 30.2 in WNW 1.2 mph   67 % 0 in
19:51 57 °F 46.2 °F 30.2 in Calm     67 % 0 in
19:56 56.8 °F 46.4 °F 30.2 in Calm     68 % 0 in
20:01 56.7 °F 46.2 °F 30.2 in NNE 1.4 mph 1.4 mph 68 % 0 in
20:06 56.1 °F 45.7 °F 30.2 in NNE 1.2 mph 1.2 mph 68 % 0 in
20:11 56.1 °F 46 °F 30.2 in NNE 1.4 mph 1.4 mph 69 % 0 in
20:16 55.9 °F 45.9 °F 30.2 in Calm     69 % 0 in
20:21 55.8 °F 45.7 °F 30.2 in Calm     69 % 0 in
20:26 55.6 °F 45.7 °F 30.2 in Calm     69 % 0 in
20:31 55.6 °F 45.7 °F 30.2 in Calm     69 % 0 in
20:36 55.4 °F 45.9 °F 30.2 in NNE 1.2 mph   70 % 0 in
20:37 55.4 °F 45.9 °F 30.2 in NNE 1.2 mph   70 % 0 in
20:42 55.2 °F 45.7 °F 30.2 in Calm     70 % 0 in
20:47 55 °F 45.3 °F 30.2 in Calm     70 % 0 in
20:52 54.9 °F 45.3 °F 30.2 in Calm     70 % 0 in
20:57 54.5 °F 45 °F 30.2 in Calm     70 % 0 in
21:02 54.1 °F 44.6 °F 30.2 in West 2.3 mph 2.3 mph 70 % 0 in
21:07 54 °F 44.8 °F 30.2 in West 1.6 mph 1.6 mph 71 % 0 in
21:12 54 °F 44.8 °F 30.2 in West 2 mph 2 mph 71 % 0 in
21:17 54 °F 44.8 °F 30.2 in West 1.4 mph 1.4 mph 71 % 0 in
21:22 54.1 °F 45.3 °F 30.2 in Calm     72 % 0 in
21:27 54.1 °F 45.3 °F 30.2 in West 1.4 mph   72 % 0 in
21:32 54.1 °F 45.3 °F 30.2 in West 1.4 mph 1.4 mph 72 % 0 in
21:37 54 °F 45.5 °F 30.2 in West 1.2 mph   73 % 0 in
21:42 53.8 °F 45.3 °F 30.2 in West 1.2 mph   73 % 0 in
21:47 53.8 °F 45.3 °F 30.2 in West 1.2 mph 1.2 mph 73 % 0 in
21:52 53.6 °F 45.1 °F 30.3 in Calm     73 % 0 in
21:57 53.6 °F 45.1 °F 30.3 in Calm     73 % 0 in
22:02 53.6 °F 45.5 °F 30.3 in Calm     74 % 0 in
22:07 53.4 °F 45.3 °F 30.2 in Calm     74 % 0 in
22:12 53.4 °F 45.3 °F 30.2 in Calm     74 % 0 in
22:17 53.4 °F 45.7 °F 30.2 in Calm     75 % 0 in
22:22 53.2 °F 45.1 °F 30.2 in Calm     74 % 0 in
22:27 53.2 °F 45.5 °F 30.2 in Calm     75 % 0 in
22:32 53.2 °F 45.5 °F 30.2 in Calm     75 % 0 in
22:37 53.1 °F 45.3 °F 30.2 in Calm     75 % 0 in
22:42 53.1 °F 45.3 °F 30.2 in Calm     75 % 0 in
22:47 52.9 °F 45.1 °F 30.2 in Calm     75 % 0 in
22:52 52.9 °F 45.1 °F 30.2 in Calm     75 % 0 in
22:57 52.7 °F 45 °F 30.2 in WNW 1.2 mph   75 % 0 in
23:02 52.5 °F 44.8 °F 30.2 in Calm     75 % 0 in
23:07 52.3 °F 44.6 °F 30.2 in WSW 1.6 mph 1.6 mph 75 % 0 in
23:12 52.2 °F 44.4 °F 30.2 in Calm     75 % 0 in
23:17 52.2 °F 44.8 °F 30.2 in ENE 2 mph 2 mph 76 % 0 in
23:22 52 °F 44.6 °F 30.2 in ENE 1.6 mph 1.6 mph 76 % 0 in
23:27 51.8 °F 44.4 °F 30.2 in ENE 1.6 mph 1.6 mph 76 % 0 in
23:32 51.8 °F 44.4 °F 30.2 in ENE 2.3 mph 2.3 mph 76 % 0 in
23:33 51.6 °F 44.2 °F 30.2 in ENE 2.3 mph 2.3 mph 76 % 0 in
23:38 51.4 °F 44.4 °F 30.2 in NE 2.3 mph 2.3 mph 77 % 0 in
23:43 51.4 °F 44.4 °F 30.2 in Calm     77 % 0 in
23:48 51.3 °F 44.2 °F 30.2 in Calm     77 % 0 in
23:53 51.1 °F 44.1 °F 30.2 in WSW 1.2 mph 1.2 mph 77 % 0 in
23:58 51.1 °F 44.1 °F 30.2 in Calm     77 % 0 in
Meteo Sesrovires
Elogis d' Weather Underground - 3.5 mb

Guio original per  Jim McMurry - jmcmurry@mwt.net Adaptat per a la plantilla per  Wim van der Kuil - Leuven-Template.eu

Trobareu la nostra informacio del temps tambe a:

Weather Underground

AWEKAS